CDT,Max TemperatureF,Mean TemperatureF,Min TemperatureF,Max Dew PointF,MeanDew PointF,Min DewpointF,Max Humidity, Mean Humidity, Min Humidity, Max Sea Level PressureIn, Mean Sea Level PressureIn, Min Sea Level PressureIn, Max VisibilityMiles, Mean VisibilityMiles, Min VisibilityMiles, Max Wind SpeedMPH, Mean Wind SpeedMPH, Max Gust SpeedMPH,PrecipitationIn, CloudCover, Events, WindDirDegrees
2013-4-1,52,40,30,40,33,26,88,71,49,30.13,30.05,29.97,10,10,7,31,14,36,0.00,4,,45
2013-4-2,33,30,28,32,29,24,100,94,75,30.19,30.13,30.08,10,4,1,17,10,22,0.00,8,,35
2013-4-3,36,32,29,32,30,28,99,92,84,30.21,30.17,30.10,10,6,2,17,10,18,0.00,8,Rain-Snow,26
2013-4-4,68,46,24,35,30,24,97,61,22,30.19,30.15,30.10,10,9,3,10,5,16,0.00,1,,73
2013-4-5,81,58,35,35,28,17,87,42,10,30.14,29.98,29.79,10,10,7,34,15,40,0.00,0,,191
2013-4-6,71,58,46,33,28,23,55,31,19,29.96,29.87,29.77,10,10,10,30,16,37,0.00,0,,63
2013-4-7,81,60,40,45,36,25,78,44,13,29.86,29.75,29.62,10,10,10,18,8,23,0.00,0,,178
2013-4-8,85,64,43,53,34,21,100,47,9,29.67,29.56,29.44,10,8,0,30,11,37,0.00,3,Fog,207
2013-4-9,64,43,22,45,21,8,70,51,21,30.05,29.74,29.47,10,8,3,39,24,50,0.00,5,,358
2013-4-10,42,29,16,10,6,3,56,42,26,30.10,30.02,29.93,10,10,10,37,26,44,0.00,1,,346
2013-4-11,67,42,17,26,15,7,64,39,16,30.01,29.84,29.72,10,10,10,24,10,33,0.00,0,,307
2013-4-12,70,51,33,34,27,23,72,46,20,30.00,29.92,29.83,10,10,10,20,7,28,0.00,0,,110
2013-4-13,79,57,36,47,36,28,90,51,17,30.00,29.79,29.56,10,10,10,33,14,41,0.00,1,,164
2013-4-14,76,63,50,49,37,20,82,44,20,29.71,29.56,29.47,10,10,10,34,21,44,0.00,0,,106
2013-4-15,76,52,30,43,24,14,66,33,16,29.83,29.74,29.62,10,10,10,24,12,32,0.00,0,,94
2013-4-16,61,48,35,43,31,24,79,57,34,30.01,29.90,29.77,10,10,10,21,15,28,0.00,3,,66
2013-4-17,48,40,32,42,37,30,99,94,75,29.93,29.80,29.69,10,5,1,30,14,39,0.00,8,,31
2013-4-18,43,33,23,30,18,11,91,60,28,30.20,30.06,29.93,10,10,7,34,26,43,0.00,2,,345
2013-4-19,61,42,23,18,12,5,74,37,11,30.21,30.13,29.99,10,10,10,22,11,26,0.00,0,,246
2013-4-20,71,56,42,25,16,10,39,23,13,29.98,29.89,29.81,10,10,10,18,12,25,0.00,0,,213
2013-4-21,73,54,34,37,26,21,61,34,15,30.07,30.00,29.95,10,10,10,21,6,26,0.00,0,,159
2013-4-22,84,58,32,44,34,18,86,50,9,30.05,29.88,29.72,10,9,2,40,18,48,0.00,2,,213
2013-4-23,32,28,23,28,22,17,94,77,57,30.29,30.17,30.05,10,9,3,31,20,50,0.00,6,,7
2013-4-24,61,40,18,23,16,8,89,49,14,30.29,30.23,30.15,10,10,10,17,8,20,0.00,0,,225
2013-4-25,69,52,34,37,25,11,59,37,16,30.27,30.17,29.98,10,10,10,26,14,32,0.00,0,,171
2013-4-26,74,58,45,46,40,30,76,54,29,30.22,30.05,29.98,10,10,7,32,12,40,0.00,2,,337
2013-4-27,78,58,39,40,32,21,81,42,13,30.21,30.13,30.01,10,10,7,16,8,54,0.00,0,,261
2013-4-28,85,68,50,37,26,14,44,23,7,30.04,29.94,29.83,10,10,10,31,13,33,0.00,0,,214
2013-4-29,88,71,54,38,29,15,43,25,7,29.85,29.77,29.65,10,10,10,26,14,32,0.00,0,,219
2013-4-30,95,76,58,43,29,14,49,23,5,29.69,29.65,29.58,10,10,10,28,19,33,0.00,0,,215